Terminal Aerodrome Forecast
Issued by NWS

Home | Current Version | Previous Version | Text Only | Print | Product List | Glossary On
Versions: 1 2 3 4 5 6 7 8 9 10 11 12
000
FTUS45 KRIW 150500
TAFRKS
TAF
KRKS 150530Z 1506/1606 34007KT P6SM SCT120
     FM150900 06008KT P6SM SCT120
     FM151600 10007KT P6SM FEW120
     FM151800 20006KT P6SM SCT110
     FM152100 25011KT P6SM SCT110
     FM160300 21006KT P6SM SCT120=

USA.gov is the U.S. government's official web portal to all federal, state and local government web resources and services.